This is the latest recevied weather packets stored in our database for station/object KEFK. If no packets are shown the sender has not sent any weather packets the latest 1 day(s).
| Time | Temp. | Humidity | Pressure | Rain* | Wind** | Luminosity | Snow |
|---|---|---|---|---|---|---|---|
| 1778016810 | 16.67° C | 82% | 1004.7 hPa | - | 1.34 m/s, 170° | - | - |
| 1778016207 | 15.56° C | 87% | 1005.1 hPa | - | 0 m/s | - | - |
| 1778015609 | 15.56° C | 87% | 1005.1 hPa | - | 0 m/s | - | - |
| 1778015008 | 15.56° C | 87% | 1005.1 hPa | - | 0 m/s | - | - |
| 1778014407 | 16.67° C | 77% | 1004.7 hPa | - | 1.34 m/s, 170° | - | - |
| 1778013811 | 16.67° C | 77% | 1004.7 hPa | - | 1.34 m/s, 170° | - | - |
| 1778013209 | 16.67° C | 77% | 1004.1 hPa | - | 3.58 m/s, 240° | - | - |
| 1778012613 | 16.67° C | 77% | 1004.1 hPa | - | 3.58 m/s, 240° | - | - |
| 1778012008 | 15.56° C | 82% | 1003.4 hPa | - | 5.36 m/s, 260° | - | - |
| 1778011406 | 15.56° C | 82% | 1003.4 hPa | - | 5.36 m/s, 260° | - | - |
| 1778010810 | 16.67° C | 77% | 1002.7 hPa | - | 2.24 m/s, 220° | - | - |
| 1778010210 | 16.67° C | 77% | 1002.7 hPa | - | 2.24 m/s, 220° | - | - |
| 1778009607 | 16.67° C | 72% | 1002.7 hPa | - | 5.36 m/s, 260° | - | - |
| 1778009009 | 16.67° C | 72% | 1002.7 hPa | - | 5.36 m/s, 260° | - | - |
| 1778008408 | 22.78° C | 35% | 1001.4 hPa | - | 6.71 m/s, 250° | - | - |
| 1778007812 | 22.78° C | 35% | 1001.4 hPa | - | 6.71 m/s, 250° | - | - |
| 1778007211 | 23.89° C | 31% | 1001 hPa | - | 9.39 m/s, 210° | - | - |
| 1778006610 | 23.89° C | 31% | 1001 hPa | - | 9.39 m/s, 210° | - | - |
| 1778006012 | 23.89° C | 33% | 1000.7 hPa | - | 8.94 m/s, 210° | - | - |
| 1778005410 | 23.89° C | 33% | 1000.7 hPa | - | 8.94 m/s, 210° | - | - |
| 1778004808 | 25° C | 31% | 1001 hPa | - | 9.39 m/s, 200° | - | - |
| 1778004210 | 25° C | 31% | 1001 hPa | - | 9.39 m/s, 200° | - | - |
| 1778003609 | 25° C | 33% | 1001.4 hPa | - | 12.07 m/s, 210° | - | - |
| 1778003004 | 25° C | 33% | 1001.4 hPa | - | 12.07 m/s, 210° | - | - |
| 1778002407 | 23.89° C | 36% | 1001.4 hPa | - | 6.71 m/s, 200° | - | - |
* Rain since midnight (hover to see other rain measurements)
** Current wind speed in m/s (hover to see current wind gust speed)